sensor_id;sensor_type;location;lat;lon;timestamp;P1;durP1;ratioP1;P2;durP2;ratioP2
48789;SDS011;41718;51.980;5.734;2023-05-07T00:01:30;9.63;;;8.32;;
48789;SDS011;41718;51.980;5.734;2023-05-07T00:06:31;8.45;;;7.65;;
48789;SDS011;41718;51.980;5.734;2023-05-07T00:11:33;10.55;;;8.07;;
48789;SDS011;41718;51.980;5.734;2023-05-07T00:16:37;8.40;;;7.57;;
48789;SDS011;41718;51.980;5.734;2023-05-07T00:21:38;10.70;;;8.60;;
48789;SDS011;41718;51.980;5.734;2023-05-07T00:26:40;9.48;;;7.80;;
48789;SDS011;41718;51.980;5.734;2023-05-07T00:31:41;8.25;;;7.43;;
48789;SDS011;41718;51.980;5.734;2023-05-07T00:36:43;7.65;;;6.95;;
48789;SDS011;41718;51.980;5.734;2023-05-07T00:41:44;9.02;;;7.70;;
48789;SDS011;41718;51.980;5.734;2023-05-07T00:46:46;8.93;;;8.02;;
48789;SDS011;41718;51.980;5.734;2023-05-07T00:51:51;8.68;;;7.82;;
48789;SDS011;41718;51.980;5.734;2023-05-07T00:56:53;8.93;;;7.75;;
48789;SDS011;41718;51.980;5.734;2023-05-07T01:01:55;7.68;;;6.78;;
48789;SDS011;41718;51.980;5.734;2023-05-07T01:06:57;7.97;;;6.63;;
48789;SDS011;41718;51.980;5.734;2023-05-07T01:12:00;9.27;;;7.30;;
48789;SDS011;41718;51.980;5.734;2023-05-07T01:17:02;10.32;;;8.05;;
48789;SDS011;41718;51.980;5.734;2023-05-07T01:22:07;9.05;;;8.15;;
48789;SDS011;41718;51.980;5.734;2023-05-07T01:27:11;9.82;;;8.15;;
48789;SDS011;41718;51.980;5.734;2023-05-07T01:32:13;8.70;;;7.90;;
48789;SDS011;41718;51.980;5.734;2023-05-07T01:37:15;7.65;;;6.95;;
48789;SDS011;41718;51.980;5.734;2023-05-07T01:42:17;9.18;;;8.27;;
48789;SDS011;41718;51.980;5.734;2023-05-07T01:47:18;8.32;;;7.45;;
48789;SDS011;41718;51.980;5.734;2023-05-07T01:52:22;8.95;;;7.20;;
48789;SDS011;41718;51.980;5.734;2023-05-07T01:57:23;9.15;;;8.27;;
48789;SDS011;41718;51.980;5.734;2023-05-07T02:02:25;9.27;;;8.40;;
48789;SDS011;41718;51.980;5.734;2023-05-07T02:07:26;10.10;;;8.82;;
48789;SDS011;41718;51.980;5.734;2023-05-07T02:12:28;9.57;;;8.48;;
48789;SDS011;41718;51.980;5.734;2023-05-07T02:17:30;12.20;;;9.52;;
48789;SDS011;41718;51.980;5.734;2023-05-07T02:22:33;9.43;;;7.20;;
48789;SDS011;41718;51.980;5.734;2023-05-07T02:27:34;10.13;;;8.38;;
48789;SDS011;41718;51.980;5.734;2023-05-07T02:32:36;8.65;;;7.55;;
48789;SDS011;41718;51.980;5.734;2023-05-07T02:37:37;8.02;;;7.25;;
48789;SDS011;41718;51.980;5.734;2023-05-07T02:42:39;9.68;;;8.68;;
48789;SDS011;41718;51.980;5.734;2023-05-07T02:47:40;9.77;;;8.65;;
48789;SDS011;41718;51.980;5.734;2023-05-07T02:52:42;10.35;;;9.18;;
48789;SDS011;41718;51.980;5.734;2023-05-07T02:57:43;11.23;;;10.07;;
48789;SDS011;41718;51.980;5.734;2023-05-07T03:02:45;10.07;;;9.07;;
48789;SDS011;41718;51.980;5.734;2023-05-07T03:07:46;9.68;;;8.75;;
48789;SDS011;41718;51.980;5.734;2023-05-07T03:12:48;11.60;;;9.68;;
48789;SDS011;41718;51.980;5.734;2023-05-07T03:17:50;10.63;;;9.52;;
48789;SDS011;41718;51.980;5.734;2023-05-07T03:22:52;10.38;;;9.30;;
48789;SDS011;41718;51.980;5.734;2023-05-07T03:27:53;12.55;;;10.40;;
48789;SDS011;41718;51.980;5.734;2023-05-07T03:32:55;12.02;;;10.27;;
48789;SDS011;41718;51.980;5.734;2023-05-07T03:37:57;11.40;;;10.20;;
48789;SDS011;41718;51.980;5.734;2023-05-07T03:42:59;11.07;;;9.98;;
48789;SDS011;41718;51.980;5.734;2023-05-07T03:48:01;12.57;;;10.77;;
48789;SDS011;41718;51.980;5.734;2023-05-07T03:53:02;16.58;;;11.68;;
48789;SDS011;41718;51.980;5.734;2023-05-07T03:58:04;13.65;;;10.52;;
48789;SDS011;41718;51.980;5.734;2023-05-07T04:03:06;16.23;;;9.90;;
48789;SDS011;41718;51.980;5.734;2023-05-07T04:08:07;10.23;;;9.23;;
48789;SDS011;41718;51.980;5.734;2023-05-07T04:13:09;13.40;;;10.10;;
48789;SDS011;41718;51.980;5.734;2023-05-07T04:18:10;14.02;;;11.38;;
48789;SDS011;41718;51.980;5.734;2023-05-07T04:23:12;15.00;;;11.27;;
48789;SDS011;41718;51.980;5.734;2023-05-07T04:28:13;13.40;;;12.00;;
48789;SDS011;41718;51.980;5.734;2023-05-07T04:33:15;15.00;;;12.13;;
48789;SDS011;41718;51.980;5.734;2023-05-07T04:38:19;17.13;;;13.70;;
48789;SDS011;41718;51.980;5.734;2023-05-07T04:43:20;17.17;;;14.52;;
48789;SDS011;41718;51.980;5.734;2023-05-07T04:48:22;28.73;;;18.00;;
48789;SDS011;41718;51.980;5.734;2023-05-07T04:53:23;29.60;;;19.40;;
48789;SDS011;41718;51.980;5.734;2023-05-07T04:58:25;28.45;;;19.10;;
48789;SDS011;41718;51.980;5.734;2023-05-07T05:03:27;27.35;;;21.42;;
48789;SDS011;41718;51.980;5.734;2023-05-07T05:08:29;29.70;;;21.13;;
48789;SDS011;41718;51.980;5.734;2023-05-07T05:13:31;22.98;;;18.83;;
48789;SDS011;41718;51.980;5.734;2023-05-07T05:18:33;26.90;;;20.85;;
48789;SDS011;41718;51.980;5.734;2023-05-07T05:23:36;28.65;;;22.35;;
48789;SDS011;41718;51.980;5.734;2023-05-07T05:28:37;26.25;;;21.67;;
48789;SDS011;41718;51.980;5.734;2023-05-07T05:33:39;25.30;;;20.40;;
48789;SDS011;41718;51.980;5.734;2023-05-07T05:38:41;29.48;;;21.17;;
48789;SDS011;41718;51.980;5.734;2023-05-07T05:43:42;33.72;;;23.33;;
48789;SDS011;41718;51.980;5.734;2023-05-07T05:48:44;29.15;;;22.08;;
48789;SDS011;41718;51.980;5.734;2023-05-07T05:53:45;30.10;;;22.58;;
48789;SDS011;41718;51.980;5.734;2023-05-07T05:58:47;27.70;;;21.35;;
48789;SDS011;41718;51.980;5.734;2023-05-07T06:03:48;29.25;;;22.13;;
48789;SDS011;41718;51.980;5.734;2023-05-07T06:08:50;29.92;;;20.70;;
48789;SDS011;41718;51.980;5.734;2023-05-07T06:13:53;29.17;;;21.98;;
48789;SDS011;41718;51.980;5.734;2023-05-07T06:18:55;30.23;;;22.88;;
48789;SDS011;41718;51.980;5.734;2023-05-07T06:23:57;30.75;;;22.45;;
48789;SDS011;41718;51.980;5.734;2023-05-07T06:28:58;28.30;;;21.52;;
48789;SDS011;41718;51.980;5.734;2023-05-07T06:33:59;26.95;;;21.33;;
48789;SDS011;41718;51.980;5.734;2023-05-07T06:39:03;32.17;;;22.95;;
48789;SDS011;41718;51.980;5.734;2023-05-07T06:44:04;27.80;;;22.42;;
48789;SDS011;41718;51.980;5.734;2023-05-07T06:49:06;30.02;;;21.25;;
48789;SDS011;41718;51.980;5.734;2023-05-07T06:54:07;26.40;;;20.95;;
48789;SDS011;41718;51.980;5.734;2023-05-07T06:59:09;28.17;;;21.00;;
48789;SDS011;41718;51.980;5.734;2023-05-07T07:04:10;25.88;;;19.90;;
48789;SDS011;41718;51.980;5.734;2023-05-07T07:09:12;25.10;;;20.90;;
48789;SDS011;41718;51.980;5.734;2023-05-07T07:14:13;26.50;;;18.23;;
48789;SDS011;41718;51.980;5.734;2023-05-07T07:19:15;25.90;;;20.15;;
48789;SDS011;41718;51.980;5.734;2023-05-07T07:24:17;24.40;;;19.92;;
48789;SDS011;41718;51.980;5.734;2023-05-07T07:29:22;25.27;;;20.50;;
48789;SDS011;41718;51.980;5.734;2023-05-07T07:34:23;23.50;;;17.83;;
48789;SDS011;41718;51.980;5.734;2023-05-07T07:39:25;23.20;;;19.10;;
48789;SDS011;41718;51.980;5.734;2023-05-07T07:44:27;24.90;;;17.88;;
48789;SDS011;41718;51.980;5.734;2023-05-07T07:49:29;27.00;;;20.15;;
48789;SDS011;41718;51.980;5.734;2023-05-07T07:54:31;24.98;;;19.40;;
48789;SDS011;41718;51.980;5.734;2023-05-07T07:59:32;22.55;;;19.00;;
48789;SDS011;41718;51.980;5.734;2023-05-07T08:04:34;24.85;;;20.15;;
48789;SDS011;41718;51.980;5.734;2023-05-07T08:09:58;26.13;;;19.65;;
48789;SDS011;41718;51.980;5.734;2023-05-07T08:15:02;25.53;;;19.70;;
48789;SDS011;41718;51.980;5.734;2023-05-07T08:20:04;26.92;;;18.90;;
48789;SDS011;41718;51.980;5.734;2023-05-07T08:25:06;22.90;;;18.90;;
48789;SDS011;41718;51.980;5.734;2023-05-07T08:30:08;22.85;;;18.95;;
48789;SDS011;41718;51.980;5.734;2023-05-07T08:35:11;21.40;;;17.90;;
48789;SDS011;41718;51.980;5.734;2023-05-07T08:40:12;24.05;;;18.15;;
48789;SDS011;41718;51.980;5.734;2023-05-07T08:45:15;20.35;;;16.77;;
48789;SDS011;41718;51.980;5.734;2023-05-07T08:50:17;20.65;;;15.07;;
48789;SDS011;41718;51.980;5.734;2023-05-07T08:55:19;20.33;;;14.77;;
48789;SDS011;41718;51.980;5.734;2023-05-07T09:00:22;17.58;;;14.27;;
48789;SDS011;41718;51.980;5.734;2023-05-07T09:05:23;16.45;;;13.52;;
48789;SDS011;41718;51.980;5.734;2023-05-07T09:10:25;17.05;;;13.60;;
48789;SDS011;41718;51.980;5.734;2023-05-07T09:15:27;15.93;;;13.82;;
48789;SDS011;41718;51.980;5.734;2023-05-07T09:20:32;17.20;;;13.18;;
48789;SDS011;41718;51.980;5.734;2023-05-07T09:25:35;15.63;;;11.40;;
48789;SDS011;41718;51.980;5.734;2023-05-07T09:30:37;20.48;;;10.75;;
48789;SDS011;41718;51.980;5.734;2023-05-07T09:35:39;15.50;;;10.52;;
48789;SDS011;41718;51.980;5.734;2023-05-07T09:40:40;13.40;;;10.02;;
48789;SDS011;41718;51.980;5.734;2023-05-07T09:45:42;24.33;;;17.73;;
48789;SDS011;41718;51.980;5.734;2023-05-07T09:50:47;16.23;;;11.52;;
48789;SDS011;41718;51.980;5.734;2023-05-07T09:55:51;29.02;;;19.20;;
48789;SDS011;41718;51.980;5.734;2023-05-07T10:00:53;14.38;;;10.98;;
48789;SDS011;41718;51.980;5.734;2023-05-07T10:05:56;10.98;;;8.48;;
48789;SDS011;41718;51.980;5.734;2023-05-07T10:10:59;9.07;;;7.57;;
48789;SDS011;41718;51.980;5.734;2023-05-07T10:16:01;11.10;;;8.82;;
48789;SDS011;41718;51.980;5.734;2023-05-07T10:21:08;14.30;;;11.30;;
48789;SDS011;41718;51.980;5.734;2023-05-07T10:26:18;18.42;;;12.13;;
48789;SDS011;41718;51.980;5.734;2023-05-07T10:31:27;13.98;;;11.27;;
48789;SDS011;41718;51.980;5.734;2023-05-07T10:36:41;14.98;;;11.15;;
48789;SDS011;41718;51.980;5.734;2023-05-07T10:41:44;16.17;;;11.18;;
48789;SDS011;41718;51.980;5.734;2023-05-07T10:46:57;15.30;;;11.30;;
48789;SDS011;41718;51.980;5.734;2023-05-07T10:52:13;10.85;;;9.15;;
48789;SDS011;41718;51.980;5.734;2023-05-07T11:03:04;8.85;;;7.88;;
48789;SDS011;41718;51.980;5.734;2023-05-07T11:08:03;10.75;;;6.60;;
48789;SDS011;41718;51.980;5.734;2023-05-07T11:13:07;11.93;;;7.93;;
48789;SDS011;41718;51.980;5.734;2023-05-07T11:18:25;13.13;;;9.23;;
48789;SDS011;41718;51.980;5.734;2023-05-07T11:23:56;12.18;;;8.75;;
48789;SDS011;41718;51.980;5.734;2023-05-07T11:29:01;10.15;;;8.75;;
48789;SDS011;41718;51.980;5.734;2023-05-07T11:34:04;14.18;;;10.52;;
48789;SDS011;41718;51.980;5.734;2023-05-07T11:39:28;12.27;;;11.00;;
48789;SDS011;41718;51.980;5.734;2023-05-07T11:44:41;16.58;;;12.95;;
48789;SDS011;41718;51.980;5.734;2023-05-07T11:49:49;14.85;;;11.48;;
48789;SDS011;41718;51.980;5.734;2023-05-07T11:54:53;12.02;;;10.82;;
48789;SDS011;41718;51.980;5.734;2023-05-07T11:59:59;12.23;;;10.52;;
48789;SDS011;41718;51.980;5.734;2023-05-07T12:05:03;11.83;;;10.53;;
48789;SDS011;41718;51.980;5.734;2023-05-07T12:10:05;16.17;;;11.02;;
48789;SDS011;41718;51.980;5.734;2023-05-07T12:15:08;10.43;;;9.05;;
48789;SDS011;41718;51.980;5.734;2023-05-07T12:20:10;12.02;;;10.38;;
48789;SDS011;41718;51.980;5.734;2023-05-07T12:25:14;12.20;;;10.40;;
48789;SDS011;41718;51.980;5.734;2023-05-07T12:30:21;12.05;;;10.80;;
48789;SDS011;41718;51.980;5.734;2023-05-07T12:35:28;12.75;;;11.35;;
48789;SDS011;41718;51.980;5.734;2023-05-07T12:40:38;14.75;;;12.52;;
48789;SDS011;41718;51.980;5.734;2023-05-07T12:45:45;11.95;;;10.55;;
48789;SDS011;41718;51.980;5.734;2023-05-07T12:50:52;10.77;;;9.77;;
48789;SDS011;41718;51.980;5.734;2023-05-07T12:55:56;12.43;;;10.05;;
48789;SDS011;41718;51.980;5.734;2023-05-07T13:01:00;8.90;;;7.25;;
48789;SDS011;41718;51.980;5.734;2023-05-07T13:06:06;11.45;;;10.35;;
48789;SDS011;41718;51.980;5.734;2023-05-07T13:11:16;11.82;;;9.93;;
48789;SDS011;41718;51.980;5.734;2023-05-07T13:16:20;15.18;;;8.93;;
48789;SDS011;41718;51.980;5.734;2023-05-07T13:21:23;4.95;;;4.15;;
48789;SDS011;41718;51.980;5.734;2023-05-07T13:26:25;9.88;;;7.75;;
48789;SDS011;41718;51.980;5.734;2023-05-07T13:31:27;10.20;;;9.15;;
48789;SDS011;41718;51.980;5.734;2023-05-07T13:36:29;10.80;;;9.48;;
48789;SDS011;41718;51.980;5.734;2023-05-07T13:46:35;8.93;;;7.07;;
48789;SDS011;41718;51.980;5.734;2023-05-07T13:51:37;8.63;;;7.72;;
48789;SDS011;41718;51.980;5.734;2023-05-07T13:56:38;9.30;;;7.63;;
48789;SDS011;41718;51.980;5.734;2023-05-07T14:01:40;8.82;;;6.78;;
48789;SDS011;41718;51.980;5.734;2023-05-07T14:11:46;8.35;;;7.28;;
48789;SDS011;41718;51.980;5.734;2023-05-07T14:16:52;12.18;;;10.63;;
48789;SDS011;41718;51.980;5.734;2023-05-07T14:21:54;12.93;;;9.60;;
48789;SDS011;41718;51.980;5.734;2023-05-07T14:32:00;8.13;;;7.28;;
48789;SDS011;41718;51.980;5.734;2023-05-07T14:37:01;8.73;;;7.32;;
48789;SDS011;41718;51.980;5.734;2023-05-07T14:42:03;12.25;;;7.82;;
48789;SDS011;41718;51.980;5.734;2023-05-07T14:47:05;8.32;;;7.53;;
48789;SDS011;41718;51.980;5.734;2023-05-07T14:52:10;8.23;;;7.38;;
48789;SDS011;41718;51.980;5.734;2023-05-07T15:02:16;6.95;;;6.25;;
48789;SDS011;41718;51.980;5.734;2023-05-07T15:07:21;7.53;;;6.32;;
48789;SDS011;41718;51.980;5.734;2023-05-07T15:12:25;7.18;;;6.38;;
48789;SDS011;41718;51.980;5.734;2023-05-07T15:17:27;7.40;;;6.63;;
48789;SDS011;41718;51.980;5.734;2023-05-07T15:22:32;7.33;;;6.63;;
48789;SDS011;41718;51.980;5.734;2023-05-07T15:27:35;3.40;;;2.43;;
48789;SDS011;41718;51.980;5.734;2023-05-07T15:32:37;1.80;;;1.67;;
48789;SDS011;41718;51.980;5.734;2023-05-07T15:37:39;2.28;;;1.50;;
48789;SDS011;41718;51.980;5.734;2023-05-07T15:42:40;1.15;;;1.05;;
48789;SDS011;41718;51.980;5.734;2023-05-07T15:47:42;1.90;;;1.65;;
48789;SDS011;41718;51.980;5.734;2023-05-07T15:52:44;3.22;;;1.98;;
48789;SDS011;41718;51.980;5.734;2023-05-07T15:57:47;3.70;;;1.70;;
48789;SDS011;41718;51.980;5.734;2023-05-07T16:02:48;1.42;;;1.33;;
48789;SDS011;41718;51.980;5.734;2023-05-07T16:07:50;1.80;;;1.10;;
48789;SDS011;41718;51.980;5.734;2023-05-07T16:12:52;2.60;;;1.30;;
48789;SDS011;41718;51.980;5.734;2023-05-07T16:17:53;3.05;;;1.48;;
48789;SDS011;41718;51.980;5.734;2023-05-07T16:22:58;1.83;;;1.40;;
48789;SDS011;41718;51.980;5.734;2023-05-07T16:28:00;2.08;;;1.73;;
48789;SDS011;41718;51.980;5.734;2023-05-07T16:33:01;2.67;;;1.83;;
48789;SDS011;41718;51.980;5.734;2023-05-07T16:38:03;5.80;;;2.03;;
48789;SDS011;41718;51.980;5.734;2023-05-07T16:43:10;4.20;;;2.20;;
48789;SDS011;41718;51.980;5.734;2023-05-07T16:48:11;2.42;;;2.22;;
48789;SDS011;41718;51.980;5.734;2023-05-07T16:53:13;3.22;;;2.92;;
48789;SDS011;41718;51.980;5.734;2023-05-07T16:58:14;4.90;;;3.15;;
48789;SDS011;41718;51.980;5.734;2023-05-07T17:03:16;3.22;;;2.85;;
48789;SDS011;41718;51.980;5.734;2023-05-07T17:08:18;3.20;;;2.35;;
48789;SDS011;41718;51.980;5.734;2023-05-07T17:13:20;3.00;;;2.80;;
48789;SDS011;41718;51.980;5.734;2023-05-07T17:18:22;3.97;;;3.10;;
48789;SDS011;41718;51.980;5.734;2023-05-07T17:23:23;8.98;;;5.43;;
48789;SDS011;41718;51.980;5.734;2023-05-07T17:28:25;4.20;;;3.30;;
48789;SDS011;41718;51.980;5.734;2023-05-07T17:33:26;2.95;;;2.65;;
48789;SDS011;41718;51.980;5.734;2023-05-07T17:38:28;4.18;;;3.78;;
48789;SDS011;41718;51.980;5.734;2023-05-07T17:43:32;4.37;;;3.87;;
48789;SDS011;41718;51.980;5.734;2023-05-07T17:48:34;3.75;;;2.88;;
48789;SDS011;41718;51.980;5.734;2023-05-07T17:53:35;6.25;;;3.60;;
48789;SDS011;41718;51.980;5.734;2023-05-07T17:58:37;2.40;;;2.08;;
48789;SDS011;41718;51.980;5.734;2023-05-07T18:03:58;6.25;;;5.22;;
48789;SDS011;41718;51.980;5.734;2023-05-07T18:09:00;3.17;;;2.83;;
48789;SDS011;41718;51.980;5.734;2023-05-07T18:14:02;1.67;;;1.58;;
48789;SDS011;41718;51.980;5.734;2023-05-07T18:19:03;2.78;;;2.22;;
48789;SDS011;41718;51.980;5.734;2023-05-07T18:24:05;4.50;;;2.65;;
48789;SDS011;41718;51.980;5.734;2023-05-07T18:29:07;3.08;;;2.28;;
48789;SDS011;41718;51.980;5.734;2023-05-07T18:34:10;2.33;;;2.13;;
48789;SDS011;41718;51.980;5.734;2023-05-07T18:39:14;2.50;;;2.30;;
48789;SDS011;41718;51.980;5.734;2023-05-07T18:44:19;2.20;;;2.10;;
48789;SDS011;41718;51.980;5.734;2023-05-07T18:54:26;3.70;;;2.65;;
48789;SDS011;41718;51.980;5.734;2023-05-07T18:59:32;2.97;;;2.78;;
48789;SDS011;41718;51.980;5.734;2023-05-07T19:04:34;3.03;;;2.70;;
48789;SDS011;41718;51.980;5.734;2023-05-07T19:09:37;2.90;;;2.70;;
48789;SDS011;41718;51.980;5.734;2023-05-07T19:14:39;3.30;;;3.00;;
48789;SDS011;41718;51.980;5.734;2023-05-07T19:19:42;3.15;;;2.78;;
48789;SDS011;41718;51.980;5.734;2023-05-07T19:24:49;4.30;;;3.90;;
48789;SDS011;41718;51.980;5.734;2023-05-07T19:29:54;3.97;;;3.57;;
48789;SDS011;41718;51.980;5.734;2023-05-07T19:34:56;8.15;;;3.33;;
48789;SDS011;41718;51.980;5.734;2023-05-07T19:39:57;4.40;;;3.55;;
48789;SDS011;41718;51.980;5.734;2023-05-07T19:45:05;4.00;;;3.63;;
48789;SDS011;41718;51.980;5.734;2023-05-07T19:50:08;4.20;;;3.80;;
48789;SDS011;41718;51.980;5.734;2023-05-07T19:55:15;3.85;;;3.55;;
48789;SDS011;41718;51.980;5.734;2023-05-07T20:00:19;4.35;;;3.95;;
48789;SDS011;41718;51.980;5.734;2023-05-07T20:05:22;4.85;;;3.72;;
48789;SDS011;41718;51.980;5.734;2023-05-07T20:10:32;5.72;;;3.90;;
48789;SDS011;41718;51.980;5.734;2023-05-07T20:15:37;4.95;;;4.47;;
48789;SDS011;41718;51.980;5.734;2023-05-07T20:20:40;5.30;;;4.80;;
48789;SDS011;41718;51.980;5.734;2023-05-07T20:25:45;5.93;;;4.40;;
48789;SDS011;41718;51.980;5.734;2023-05-07T20:30:50;5.10;;;4.60;;
48789;SDS011;41718;51.980;5.734;2023-05-07T20:35:52;6.85;;;4.88;;
48789;SDS011;41718;51.980;5.734;2023-05-07T20:40:54;5.78;;;4.90;;
48789;SDS011;41718;51.980;5.734;2023-05-07T20:45:59;5.35;;;4.85;;
48789;SDS011;41718;51.980;5.734;2023-05-07T20:51:04;5.60;;;5.10;;
48789;SDS011;41718;51.980;5.734;2023-05-07T20:56:05;5.57;;;4.95;;
48789;SDS011;41718;51.980;5.734;2023-05-07T21:01:10;7.15;;;5.43;;
48789;SDS011;41718;51.980;5.734;2023-05-07T21:06:13;5.65;;;5.15;;
48789;SDS011;41718;51.980;5.734;2023-05-07T21:11:16;6.30;;;4.57;;
48789;SDS011;41718;51.980;5.734;2023-05-07T21:16:26;6.00;;;5.40;;
48789;SDS011;41718;51.980;5.734;2023-05-07T21:21:28;6.57;;;5.97;;
48789;SDS011;41718;51.980;5.734;2023-05-07T21:26:30;5.47;;;4.97;;
48789;SDS011;41718;51.980;5.734;2023-05-07T21:31:32;6.55;;;5.95;;
48789;SDS011;41718;51.980;5.734;2023-05-07T21:36:34;6.22;;;5.68;;
48789;SDS011;41718;51.980;5.734;2023-05-07T21:41:35;5.35;;;4.85;;
48789;SDS011;41718;51.980;5.734;2023-05-07T21:46:39;8.50;;;6.32;;
48789;SDS011;41718;51.980;5.734;2023-05-07T21:51:41;9.50;;;5.95;;
48789;SDS011;41718;51.980;5.734;2023-05-07T21:56:43;5.75;;;4.93;;
48789;SDS011;41718;51.980;5.734;2023-05-07T22:01:45;6.68;;;5.13;;
48789;SDS011;41718;51.980;5.734;2023-05-07T22:06:47;6.35;;;5.35;;
48789;SDS011;41718;51.980;5.734;2023-05-07T22:11:48;7.43;;;5.97;;
48789;SDS011;41718;51.980;5.734;2023-05-07T22:16:53;6.90;;;6.07;;
48789;SDS011;41718;51.980;5.734;2023-05-07T22:21:55;7.95;;;6.97;;
48789;SDS011;41718;51.980;5.734;2023-05-07T22:26:56;8.20;;;6.10;;
48789;SDS011;41718;51.980;5.734;2023-05-07T22:31:59;7.05;;;6.35;;
48789;SDS011;41718;51.980;5.734;2023-05-07T22:37:01;7.57;;;6.43;;
48789;SDS011;41718;51.980;5.734;2023-05-07T22:42:03;6.55;;;5.95;;
48789;SDS011;41718;51.980;5.734;2023-05-07T22:47:05;6.25;;;5.65;;
48789;SDS011;41718;51.980;5.734;2023-05-07T22:52:06;7.43;;;6.65;;
48789;SDS011;41718;51.980;5.734;2023-05-07T22:57:08;7.35;;;5.97;;
48789;SDS011;41718;51.980;5.734;2023-05-07T23:02:09;8.00;;;7.18;;
48789;SDS011;41718;51.980;5.734;2023-05-07T23:07:11;6.53;;;5.82;;
48789;SDS011;41718;51.980;5.734;2023-05-07T23:12:13;5.97;;;5.38;;
48789;SDS011;41718;51.980;5.734;2023-05-07T23:17:14;8.50;;;6.80;;
48789;SDS011;41718;51.980;5.734;2023-05-07T23:22:16;6.97;;;6.38;;
48789;SDS011;41718;51.980;5.734;2023-05-07T23:27:17;9.10;;;6.93;;
48789;SDS011;41718;51.980;5.734;2023-05-07T23:32:19;8.05;;;6.93;;
48789;SDS011;41718;51.980;5.734;2023-05-07T23:37:20;7.93;;;6.65;;
48789;SDS011;41718;51.980;5.734;2023-05-07T23:42:22;9.35;;;7.30;;
48789;SDS011;41718;51.980;5.734;2023-05-07T23:47:23;7.85;;;7.03;;
48789;SDS011;41718;51.980;5.734;2023-05-07T23:52:25;7.18;;;6.47;;
48789;SDS011;41718;51.980;5.734;2023-05-07T23:57:27;8.70;;;7.50;;
